sensor_id;sensor_type;location;lat;lon;timestamp;P1;durP1;ratioP1;P2;durP2;ratioP2
5042;SDS011;2540;50.928;6.856;2023-04-25T00:00:54;10.07;;;4.20;;
5042;SDS011;2540;50.928;6.856;2023-04-25T00:03:20;14.57;;;4.47;;
5042;SDS011;2540;50.928;6.856;2023-04-25T00:05:46;10.20;;;4.13;;
5042;SDS011;2540;50.928;6.856;2023-04-25T00:08:11;8.33;;;3.63;;
5042;SDS011;2540;50.928;6.856;2023-04-25T00:10:36;19.30;;;3.87;;
5042;SDS011;2540;50.928;6.856;2023-04-25T00:13:02;12.67;;;4.10;;
5042;SDS011;2540;50.928;6.856;2023-04-25T00:15:28;10.90;;;4.03;;
5042;SDS011;2540;50.928;6.856;2023-04-25T00:17:55;14.27;;;4.07;;
5042;SDS011;2540;50.928;6.856;2023-04-25T00:20:21;14.20;;;4.20;;
5042;SDS011;2540;50.928;6.856;2023-04-25T00:22:48;8.23;;;3.70;;
5042;SDS011;2540;50.928;6.856;2023-04-25T00:25:14;10.80;;;3.80;;
5042;SDS011;2540;50.928;6.856;2023-04-25T00:27:39;15.90;;;4.40;;
5042;SDS011;2540;50.928;6.856;2023-04-25T00:30:06;16.00;;;4.47;;
5042;SDS011;2540;50.928;6.856;2023-04-25T00:32:32;12.93;;;4.37;;
5042;SDS011;2540;50.928;6.856;2023-04-25T00:34:57;20.20;;;4.40;;
5042;SDS011;2540;50.928;6.856;2023-04-25T00:37:23;19.83;;;4.53;;
5042;SDS011;2540;50.928;6.856;2023-04-25T00:39:48;20.47;;;4.37;;
5042;SDS011;2540;50.928;6.856;2023-04-25T00:42:14;15.27;;;4.40;;
5042;SDS011;2540;50.928;6.856;2023-04-25T00:44:39;15.37;;;4.17;;
5042;SDS011;2540;50.928;6.856;2023-04-25T00:47:04;16.33;;;4.57;;
5042;SDS011;2540;50.928;6.856;2023-04-25T00:49:30;11.70;;;4.37;;
5042;SDS011;2540;50.928;6.856;2023-04-25T00:51:55;16.23;;;4.67;;
5042;SDS011;2540;50.928;6.856;2023-04-25T00:54:21;11.47;;;4.43;;
5042;SDS011;2540;50.928;6.856;2023-04-25T00:56:47;14.57;;;5.23;;
5042;SDS011;2540;50.928;6.856;2023-04-25T00:59:12;18.10;;;4.10;;
5042;SDS011;2540;50.928;6.856;2023-04-25T01:01:38;13.07;;;4.73;;
5042;SDS011;2540;50.928;6.856;2023-04-25T01:04:04;13.40;;;4.70;;
5042;SDS011;2540;50.928;6.856;2023-04-25T01:06:29;10.37;;;3.70;;
5042;SDS011;2540;50.928;6.856;2023-04-25T01:08:55;12.00;;;4.50;;
5042;SDS011;2540;50.928;6.856;2023-04-25T01:11:20;14.00;;;4.60;;
5042;SDS011;2540;50.928;6.856;2023-04-25T01:13:45;9.27;;;3.77;;
5042;SDS011;2540;50.928;6.856;2023-04-25T01:16:11;19.97;;;5.27;;
5042;SDS011;2540;50.928;6.856;2023-04-25T01:18:38;21.80;;;4.97;;
5042;SDS011;2540;50.928;6.856;2023-04-25T01:21:07;15.43;;;5.30;;
5042;SDS011;2540;50.928;6.856;2023-04-25T01:23:34;22.83;;;5.50;;
5042;SDS011;2540;50.928;6.856;2023-04-25T01:26:00;13.63;;;4.90;;
5042;SDS011;2540;50.928;6.856;2023-04-25T01:28:26;15.33;;;5.17;;
5042;SDS011;2540;50.928;6.856;2023-04-25T01:30:52;16.60;;;4.90;;
5042;SDS011;2540;50.928;6.856;2023-04-25T01:33:17;17.00;;;5.27;;
5042;SDS011;2540;50.928;6.856;2023-04-25T01:35:44;16.70;;;4.20;;
5042;SDS011;2540;50.928;6.856;2023-04-25T01:38:09;19.07;;;4.90;;
5042;SDS011;2540;50.928;6.856;2023-04-25T01:40:35;12.17;;;5.07;;
5042;SDS011;2540;50.928;6.856;2023-04-25T01:43:04;20.33;;;5.63;;
5042;SDS011;2540;50.928;6.856;2023-04-25T01:45:29;22.80;;;5.90;;
5042;SDS011;2540;50.928;6.856;2023-04-25T01:47:54;20.87;;;4.77;;
5042;SDS011;2540;50.928;6.856;2023-04-25T01:50:24;20.03;;;5.37;;
5042;SDS011;2540;50.928;6.856;2023-04-25T01:52:49;19.93;;;5.87;;
5042;SDS011;2540;50.928;6.856;2023-04-25T01:55:14;17.53;;;5.30;;
5042;SDS011;2540;50.928;6.856;2023-04-25T01:57:40;18.83;;;5.17;;
5042;SDS011;2540;50.928;6.856;2023-04-25T02:00:06;24.23;;;4.70;;
5042;SDS011;2540;50.928;6.856;2023-04-25T02:02:32;25.77;;;6.13;;
5042;SDS011;2540;50.928;6.856;2023-04-25T02:04:57;17.10;;;5.20;;
5042;SDS011;2540;50.928;6.856;2023-04-25T02:07:22;11.33;;;4.57;;
5042;SDS011;2540;50.928;6.856;2023-04-25T02:09:47;13.70;;;4.90;;
5042;SDS011;2540;50.928;6.856;2023-04-25T02:12:13;12.77;;;5.10;;
5042;SDS011;2540;50.928;6.856;2023-04-25T02:14:38;20.03;;;5.50;;
5042;SDS011;2540;50.928;6.856;2023-04-25T02:17:04;17.50;;;5.70;;
5042;SDS011;2540;50.928;6.856;2023-04-25T02:19:30;13.63;;;4.57;;
5042;SDS011;2540;50.928;6.856;2023-04-25T02:21:55;13.27;;;5.63;;
5042;SDS011;2540;50.928;6.856;2023-04-25T02:24:22;17.33;;;5.17;;
5042;SDS011;2540;50.928;6.856;2023-04-25T02:26:47;14.97;;;5.27;;
5042;SDS011;2540;50.928;6.856;2023-04-25T02:29:14;18.20;;;5.20;;
5042;SDS011;2540;50.928;6.856;2023-04-25T02:31:40;16.37;;;5.40;;
5042;SDS011;2540;50.928;6.856;2023-04-25T02:34:05;11.13;;;3.50;;
5042;SDS011;2540;50.928;6.856;2023-04-25T02:36:30;22.57;;;4.37;;
5042;SDS011;2540;50.928;6.856;2023-04-25T02:38:59;13.93;;;4.60;;
5042;SDS011;2540;50.928;6.856;2023-04-25T02:41:25;11.90;;;4.40;;
5042;SDS011;2540;50.928;6.856;2023-04-25T02:43:50;14.90;;;4.83;;
5042;SDS011;2540;50.928;6.856;2023-04-25T02:46:15;13.30;;;3.80;;
5042;SDS011;2540;50.928;6.856;2023-04-25T02:48:41;11.50;;;3.90;;
5042;SDS011;2540;50.928;6.856;2023-04-25T02:51:06;17.47;;;4.07;;
5042;SDS011;2540;50.928;6.856;2023-04-25T02:53:31;13.03;;;4.10;;
5042;SDS011;2540;50.928;6.856;2023-04-25T02:55:57;13.53;;;4.40;;
5042;SDS011;2540;50.928;6.856;2023-04-25T02:58:24;12.10;;;4.43;;
5042;SDS011;2540;50.928;6.856;2023-04-25T03:00:49;15.53;;;3.90;;
5042;SDS011;2540;50.928;6.856;2023-04-25T03:03:14;17.40;;;4.17;;
5042;SDS011;2540;50.928;6.856;2023-04-25T03:05:42;10.27;;;3.63;;
5042;SDS011;2540;50.928;6.856;2023-04-25T03:08:08;10.73;;;3.70;;
5042;SDS011;2540;50.928;6.856;2023-04-25T03:10:33;16.30;;;4.57;;
5042;SDS011;2540;50.928;6.856;2023-04-25T03:12:58;15.23;;;4.40;;
5042;SDS011;2540;50.928;6.856;2023-04-25T03:15:24;10.03;;;4.10;;
5042;SDS011;2540;50.928;6.856;2023-04-25T03:17:49;16.00;;;4.23;;
5042;SDS011;2540;50.928;6.856;2023-04-25T03:20:15;13.47;;;3.80;;
5042;SDS011;2540;50.928;6.856;2023-04-25T03:22:40;12.90;;;4.30;;
5042;SDS011;2540;50.928;6.856;2023-04-25T03:25:06;14.03;;;4.50;;
5042;SDS011;2540;50.928;6.856;2023-04-25T03:27:32;14.33;;;3.63;;
5042;SDS011;2540;50.928;6.856;2023-04-25T03:29:57;9.40;;;4.00;;
5042;SDS011;2540;50.928;6.856;2023-04-25T03:32:22;6.03;;;3.37;;
5042;SDS011;2540;50.928;6.856;2023-04-25T03:34:48;15.23;;;4.63;;
5042;SDS011;2540;50.928;6.856;2023-04-25T03:37:13;16.13;;;4.63;;
5042;SDS011;2540;50.928;6.856;2023-04-25T03:39:38;19.00;;;4.30;;
5042;SDS011;2540;50.928;6.856;2023-04-25T03:42:04;26.30;;;4.40;;
5042;SDS011;2540;50.928;6.856;2023-04-25T03:44:29;13.13;;;5.13;;
5042;SDS011;2540;50.928;6.856;2023-04-25T03:46:54;9.73;;;4.60;;
5042;SDS011;2540;50.928;6.856;2023-04-25T03:49:20;15.53;;;4.63;;
5042;SDS011;2540;50.928;6.856;2023-04-25T03:51:45;12.87;;;5.63;;
5042;SDS011;2540;50.928;6.856;2023-04-25T03:54:10;9.83;;;4.90;;
5042;SDS011;2540;50.928;6.856;2023-04-25T03:56:36;17.23;;;5.53;;
5042;SDS011;2540;50.928;6.856;2023-04-25T03:59:01;9.70;;;4.37;;
5042;SDS011;2540;50.928;6.856;2023-04-25T04:01:26;12.83;;;5.30;;
5042;SDS011;2540;50.928;6.856;2023-04-25T04:03:52;14.53;;;4.43;;
5042;SDS011;2540;50.928;6.856;2023-04-25T04:06:17;19.93;;;4.97;;
5042;SDS011;2540;50.928;6.856;2023-04-25T04:08:43;10.40;;;4.67;;
5042;SDS011;2540;50.928;6.856;2023-04-25T04:11:09;14.50;;;4.33;;
5042;SDS011;2540;50.928;6.856;2023-04-25T04:13:34;13.43;;;4.77;;
5042;SDS011;2540;50.928;6.856;2023-04-25T04:15:59;21.13;;;4.50;;
5042;SDS011;2540;50.928;6.856;2023-04-25T04:18:25;15.40;;;4.80;;
5042;SDS011;2540;50.928;6.856;2023-04-25T04:20:50;11.23;;;4.10;;
5042;SDS011;2540;50.928;6.856;2023-04-25T04:23:15;13.17;;;5.63;;
5042;SDS011;2540;50.928;6.856;2023-04-25T04:25:41;8.47;;;3.47;;
5042;SDS011;2540;50.928;6.856;2023-04-25T04:28:06;17.60;;;4.50;;
5042;SDS011;2540;50.928;6.856;2023-04-25T04:30:32;12.97;;;3.97;;
5042;SDS011;2540;50.928;6.856;2023-04-25T04:32:58;19.80;;;6.10;;
5042;SDS011;2540;50.928;6.856;2023-04-25T04:35:23;15.80;;;5.20;;
5042;SDS011;2540;50.928;6.856;2023-04-25T04:37:49;13.97;;;4.57;;
5042;SDS011;2540;50.928;6.856;2023-04-25T04:40:15;16.97;;;4.63;;
5042;SDS011;2540;50.928;6.856;2023-04-25T04:42:41;17.17;;;4.80;;
5042;SDS011;2540;50.928;6.856;2023-04-25T04:45:07;10.77;;;4.20;;
5042;SDS011;2540;50.928;6.856;2023-04-25T04:47:33;19.77;;;4.50;;
5042;SDS011;2540;50.928;6.856;2023-04-25T04:49:59;15.37;;;5.20;;
5042;SDS011;2540;50.928;6.856;2023-04-25T04:52:24;12.80;;;5.13;;
5042;SDS011;2540;50.928;6.856;2023-04-25T04:54:49;19.37;;;4.50;;
5042;SDS011;2540;50.928;6.856;2023-04-25T04:57:15;16.07;;;4.80;;
5042;SDS011;2540;50.928;6.856;2023-04-25T04:59:41;14.90;;;5.33;;
5042;SDS011;2540;50.928;6.856;2023-04-25T05:02:06;21.20;;;5.53;;
5042;SDS011;2540;50.928;6.856;2023-04-25T05:04:32;22.37;;;5.33;;
5042;SDS011;2540;50.928;6.856;2023-04-25T05:06:57;16.53;;;4.53;;
5042;SDS011;2540;50.928;6.856;2023-04-25T05:09:22;15.20;;;4.67;;
5042;SDS011;2540;50.928;6.856;2023-04-25T05:11:50;10.27;;;4.80;;
5042;SDS011;2540;50.928;6.856;2023-04-25T05:14:16;17.67;;;4.63;;
5042;SDS011;2540;50.928;6.856;2023-04-25T05:16:42;23.93;;;4.63;;
5042;SDS011;2540;50.928;6.856;2023-04-25T05:19:08;14.63;;;4.50;;
5042;SDS011;2540;50.928;6.856;2023-04-25T05:21:33;21.80;;;5.00;;
5042;SDS011;2540;50.928;6.856;2023-04-25T05:23:59;12.80;;;4.30;;
5042;SDS011;2540;50.928;6.856;2023-04-25T05:26:24;22.47;;;5.47;;
5042;SDS011;2540;50.928;6.856;2023-04-25T05:28:50;27.33;;;5.57;;
5042;SDS011;2540;50.928;6.856;2023-04-25T05:31:16;18.37;;;4.87;;
5042;SDS011;2540;50.928;6.856;2023-04-25T05:33:41;32.47;;;5.60;;
5042;SDS011;2540;50.928;6.856;2023-04-25T05:36:06;20.33;;;4.53;;
5042;SDS011;2540;50.928;6.856;2023-04-25T05:38:32;16.27;;;4.10;;
5042;SDS011;2540;50.928;6.856;2023-04-25T05:40:57;29.57;;;5.27;;
5042;SDS011;2540;50.928;6.856;2023-04-25T05:43:23;22.80;;;4.20;;
5042;SDS011;2540;50.928;6.856;2023-04-25T05:45:48;11.93;;;4.30;;
5042;SDS011;2540;50.928;6.856;2023-04-25T05:48:13;24.03;;;4.50;;
5042;SDS011;2540;50.928;6.856;2023-04-25T05:50:39;18.70;;;5.30;;
5042;SDS011;2540;50.928;6.856;2023-04-25T05:53:04;17.20;;;5.40;;
5042;SDS011;2540;50.928;6.856;2023-04-25T05:55:30;18.97;;;5.50;;
5042;SDS011;2540;50.928;6.856;2023-04-25T05:57:56;16.80;;;5.30;;
5042;SDS011;2540;50.928;6.856;2023-04-25T06:00:21;28.00;;;6.10;;
5042;SDS011;2540;50.928;6.856;2023-04-25T06:02:47;17.57;;;4.27;;
5042;SDS011;2540;50.928;6.856;2023-04-25T06:05:13;12.67;;;4.60;;
5042;SDS011;2540;50.928;6.856;2023-04-25T06:07:38;19.33;;;4.30;;
5042;SDS011;2540;50.928;6.856;2023-04-25T06:10:03;24.90;;;5.17;;
5042;SDS011;2540;50.928;6.856;2023-04-25T06:12:31;22.53;;;4.03;;
5042;SDS011;2540;50.928;6.856;2023-04-25T06:14:57;17.53;;;4.63;;
5042;SDS011;2540;50.928;6.856;2023-04-25T06:17:22;14.90;;;4.00;;
5042;SDS011;2540;50.928;6.856;2023-04-25T06:19:48;22.80;;;5.13;;
5042;SDS011;2540;50.928;6.856;2023-04-25T06:22:13;18.80;;;5.90;;
5042;SDS011;2540;50.928;6.856;2023-04-25T06:24:38;16.33;;;5.13;;
5042;SDS011;2540;50.928;6.856;2023-04-25T06:27:04;15.63;;;3.77;;
5042;SDS011;2540;50.928;6.856;2023-04-25T06:29:30;11.60;;;4.30;;
5042;SDS011;2540;50.928;6.856;2023-04-25T06:31:55;17.00;;;4.10;;
5042;SDS011;2540;50.928;6.856;2023-04-25T06:34:20;17.00;;;3.13;;
5042;SDS011;2540;50.928;6.856;2023-04-25T06:36:46;15.10;;;3.90;;
5042;SDS011;2540;50.928;6.856;2023-04-25T06:39:11;16.57;;;3.80;;
5042;SDS011;2540;50.928;6.856;2023-04-25T06:41:36;15.37;;;3.60;;
5042;SDS011;2540;50.928;6.856;2023-04-25T06:44:02;12.93;;;3.43;;
5042;SDS011;2540;50.928;6.856;2023-04-25T06:46:27;20.43;;;4.07;;
5042;SDS011;2540;50.928;6.856;2023-04-25T06:48:52;12.97;;;3.10;;
5042;SDS011;2540;50.928;6.856;2023-04-25T06:51:18;23.97;;;3.47;;
5042;SDS011;2540;50.928;6.856;2023-04-25T06:53:43;14.83;;;4.00;;
5042;SDS011;2540;50.928;6.856;2023-04-25T06:56:08;18.40;;;3.47;;
5042;SDS011;2540;50.928;6.856;2023-04-25T06:58:34;10.27;;;3.83;;
5042;SDS011;2540;50.928;6.856;2023-04-25T07:00:59;21.50;;;3.60;;
5042;SDS011;2540;50.928;6.856;2023-04-25T07:03:25;13.77;;;3.70;;
5042;SDS011;2540;50.928;6.856;2023-04-25T07:05:50;24.10;;;3.90;;
5042;SDS011;2540;50.928;6.856;2023-04-25T07:08:16;14.13;;;3.00;;
5042;SDS011;2540;50.928;6.856;2023-04-25T07:10:41;12.40;;;3.63;;
5042;SDS011;2540;50.928;6.856;2023-04-25T07:13:07;17.37;;;2.70;;
5042;SDS011;2540;50.928;6.856;2023-04-25T07:15:32;16.03;;;3.80;;
5042;SDS011;2540;50.928;6.856;2023-04-25T07:17:58;13.27;;;2.83;;
5042;SDS011;2540;50.928;6.856;2023-04-25T07:20:23;13.40;;;2.93;;
5042;SDS011;2540;50.928;6.856;2023-04-25T07:22:48;13.20;;;2.90;;
5042;SDS011;2540;50.928;6.856;2023-04-25T07:25:15;19.00;;;2.97;;
5042;SDS011;2540;50.928;6.856;2023-04-25T07:27:40;10.63;;;2.97;;
5042;SDS011;2540;50.928;6.856;2023-04-25T07:30:06;27.27;;;2.77;;
5042;SDS011;2540;50.928;6.856;2023-04-25T07:32:32;7.17;;;2.30;;
5042;SDS011;2540;50.928;6.856;2023-04-25T07:34:57;10.53;;;3.17;;
5042;SDS011;2540;50.928;6.856;2023-04-25T07:37:23;13.80;;;2.53;;
5042;SDS011;2540;50.928;6.856;2023-04-25T07:39:48;18.50;;;3.40;;
5042;SDS011;2540;50.928;6.856;2023-04-25T07:42:13;17.10;;;3.73;;
5042;SDS011;2540;50.928;6.856;2023-04-25T07:44:39;11.70;;;2.93;;
5042;SDS011;2540;50.928;6.856;2023-04-25T07:47:08;13.83;;;3.00;;
5042;SDS011;2540;50.928;6.856;2023-04-25T07:49:37;12.33;;;3.20;;
5042;SDS011;2540;50.928;6.856;2023-04-25T07:52:03;14.73;;;3.13;;
5042;SDS011;2540;50.928;6.856;2023-04-25T07:54:29;11.93;;;3.00;;
5042;SDS011;2540;50.928;6.856;2023-04-25T07:56:54;13.27;;;2.63;;
5042;SDS011;2540;50.928;6.856;2023-04-25T07:59:20;16.47;;;2.50;;
5042;SDS011;2540;50.928;6.856;2023-04-25T08:01:45;14.90;;;3.13;;
5042;SDS011;2540;50.928;6.856;2023-04-25T08:04:11;11.60;;;2.50;;
5042;SDS011;2540;50.928;6.856;2023-04-25T08:06:36;13.73;;;3.20;;
5042;SDS011;2540;50.928;6.856;2023-04-25T08:09:01;10.10;;;3.10;;
5042;SDS011;2540;50.928;6.856;2023-04-25T08:11:27;10.73;;;2.57;;
5042;SDS011;2540;50.928;6.856;2023-04-25T08:13:53;9.80;;;3.03;;
5042;SDS011;2540;50.928;6.856;2023-04-25T08:16:18;11.17;;;2.50;;
5042;SDS011;2540;50.928;6.856;2023-04-25T08:18:43;9.50;;;3.47;;
5042;SDS011;2540;50.928;6.856;2023-04-25T08:21:09;11.80;;;2.67;;
5042;SDS011;2540;50.928;6.856;2023-04-25T08:23:36;11.07;;;2.43;;
5042;SDS011;2540;50.928;6.856;2023-04-25T08:26:02;12.47;;;3.20;;
5042;SDS011;2540;50.928;6.856;2023-04-25T08:28:27;14.40;;;3.17;;
5042;SDS011;2540;50.928;6.856;2023-04-25T08:30:53;17.73;;;2.67;;
5042;SDS011;2540;50.928;6.856;2023-04-25T08:33:18;19.27;;;3.20;;
5042;SDS011;2540;50.928;6.856;2023-04-25T08:35:44;14.87;;;3.40;;
5042;SDS011;2540;50.928;6.856;2023-04-25T08:38:09;12.73;;;3.37;;
5042;SDS011;2540;50.928;6.856;2023-04-25T08:40:35;28.90;;;2.70;;
5042;SDS011;2540;50.928;6.856;2023-04-25T08:43:02;10.33;;;2.10;;
5042;SDS011;2540;50.928;6.856;2023-04-25T08:45:28;7.47;;;2.50;;
5042;SDS011;2540;50.928;6.856;2023-04-25T08:47:56;16.10;;;3.07;;
5042;SDS011;2540;50.928;6.856;2023-04-25T08:50:22;10.77;;;2.67;;
5042;SDS011;2540;50.928;6.856;2023-04-25T08:52:47;6.17;;;1.77;;
5042;SDS011;2540;50.928;6.856;2023-04-25T08:55:17;14.03;;;1.70;;
5042;SDS011;2540;50.928;6.856;2023-04-25T08:57:43;13.60;;;2.20;;
5042;SDS011;2540;50.928;6.856;2023-04-25T09:00:09;7.53;;;2.20;;
5042;SDS011;2540;50.928;6.856;2023-04-25T09:02:35;8.60;;;1.90;;
5042;SDS011;2540;50.928;6.856;2023-04-25T09:05:02;10.40;;;2.87;;
5042;SDS011;2540;50.928;6.856;2023-04-25T09:07:29;8.43;;;2.50;;
5042;SDS011;2540;50.928;6.856;2023-04-25T09:09:54;7.57;;;2.60;;
5042;SDS011;2540;50.928;6.856;2023-04-25T09:12:20;9.50;;;1.60;;
5042;SDS011;2540;50.928;6.856;2023-04-25T09:15:02;19.47;;;2.37;;
5042;SDS011;2540;50.928;6.856;2023-04-25T09:17:29;23.07;;;3.27;;
5042;SDS011;2540;50.928;6.856;2023-04-25T09:19:54;18.80;;;2.67;;
5042;SDS011;2540;50.928;6.856;2023-04-25T09:22:19;23.87;;;3.60;;
5042;SDS011;2540;50.928;6.856;2023-04-25T09:24:47;4.30;;;1.60;;
5042;SDS011;2540;50.928;6.856;2023-04-25T09:27:18;11.97;;;2.90;;
5042;SDS011;2540;50.928;6.856;2023-04-25T09:29:44;11.53;;;2.03;;
5042;SDS011;2540;50.928;6.856;2023-04-25T09:32:10;9.10;;;2.10;;
5042;SDS011;2540;50.928;6.856;2023-04-25T09:34:41;13.50;;;2.37;;
5042;SDS011;2540;50.928;6.856;2023-04-25T09:37:08;14.23;;;2.53;;
5042;SDS011;2540;50.928;6.856;2023-04-25T09:39:35;8.20;;;2.63;;
5042;SDS011;2540;50.928;6.856;2023-04-25T09:42:00;7.07;;;1.97;;
5042;SDS011;2540;50.928;6.856;2023-04-25T09:44:28;14.67;;;2.43;;
5042;SDS011;2540;50.928;6.856;2023-04-25T09:46:53;9.37;;;2.27;;
5042;SDS011;2540;50.928;6.856;2023-04-25T09:49:19;8.07;;;2.17;;
5042;SDS011;2540;50.928;6.856;2023-04-25T09:51:57;5.77;;;2.33;;
5042;SDS011;2540;50.928;6.856;2023-04-25T09:54:23;18.77;;;2.73;;
5042;SDS011;2540;50.928;6.856;2023-04-25T09:56:50;16.10;;;2.30;;
5042;SDS011;2540;50.928;6.856;2023-04-25T09:59:18;6.93;;;1.97;;
5042;SDS011;2540;50.928;6.856;2023-04-25T10:01:45;6.23;;;1.80;;
5042;SDS011;2540;50.928;6.856;2023-04-25T10:04:10;13.30;;;2.00;;
5042;SDS011;2540;50.928;6.856;2023-04-25T10:06:37;11.53;;;2.70;;
5042;SDS011;2540;50.928;6.856;2023-04-25T10:09:02;12.90;;;3.13;;
5042;SDS011;2540;50.928;6.856;2023-04-25T10:11:28;12.10;;;2.07;;
5042;SDS011;2540;50.928;6.856;2023-04-25T10:13:55;5.53;;;1.63;;
5042;SDS011;2540;50.928;6.856;2023-04-25T10:16:21;21.47;;;2.47;;
5042;SDS011;2540;50.928;6.856;2023-04-25T10:18:46;10.27;;;2.30;;
5042;SDS011;2540;50.928;6.856;2023-04-25T10:21:11;9.50;;;2.33;;
5042;SDS011;2540;50.928;6.856;2023-04-25T10:23:37;9.53;;;2.17;;
5042;SDS011;2540;50.928;6.856;2023-04-25T10:26:03;10.63;;;2.43;;
5042;SDS011;2540;50.928;6.856;2023-04-25T10:28:29;6.20;;;2.00;;
5042;SDS011;2540;50.928;6.856;2023-04-25T10:30:58;6.53;;;2.17;;
5042;SDS011;2540;50.928;6.856;2023-04-25T10:33:32;10.70;;;2.27;;
5042;SDS011;2540;50.928;6.856;2023-04-25T10:35:58;20.57;;;2.37;;
5042;SDS011;2540;50.928;6.856;2023-04-25T10:38:24;7.07;;;2.50;;
5042;SDS011;2540;50.928;6.856;2023-04-25T10:41:06;11.77;;;2.47;;
5042;SDS011;2540;50.928;6.856;2023-04-25T10:48:50;9.53;;;2.87;;
5042;SDS011;2540;50.928;6.856;2023-04-25T10:51:25;9.43;;;2.23;;
5042;SDS011;2540;50.928;6.856;2023-04-25T10:54:01;6.30;;;2.20;;
5042;SDS011;2540;50.928;6.856;2023-04-25T10:56:28;6.20;;;2.17;;
5042;SDS011;2540;50.928;6.856;2023-04-25T10:59:17;8.53;;;2.40;;
5042;SDS011;2540;50.928;6.856;2023-04-25T11:01:45;7.07;;;2.43;;
5042;SDS011;2540;50.928;6.856;2023-04-25T11:04:31;7.50;;;1.43;;
5042;SDS011;2540;50.928;6.856;2023-04-25T11:09:47;10.57;;;1.60;;
5042;SDS011;2540;50.928;6.856;2023-04-25T11:12:13;6.70;;;1.10;;
5042;SDS011;2540;50.928;6.856;2023-04-25T11:14:39;7.37;;;1.80;;
5042;SDS011;2540;50.928;6.856;2023-04-25T11:17:05;8.57;;;1.70;;
5042;SDS011;2540;50.928;6.856;2023-04-25T11:19:31;11.73;;;2.07;;
5042;SDS011;2540;50.928;6.856;2023-04-25T11:21:57;3.33;;;1.53;;
5042;SDS011;2540;50.928;6.856;2023-04-25T11:24:33;7.67;;;1.77;;
5042;SDS011;2540;50.928;6.856;2023-04-25T11:27:02;5.07;;;2.00;;
5042;SDS011;2540;50.928;6.856;2023-04-25T11:29:29;8.63;;;2.23;;
5042;SDS011;2540;50.928;6.856;2023-04-25T11:31:55;4.00;;;1.10;;
5042;SDS011;2540;50.928;6.856;2023-04-25T11:34:25;10.43;;;2.20;;
5042;SDS011;2540;50.928;6.856;2023-04-25T11:36:51;6.13;;;1.63;;
5042;SDS011;2540;50.928;6.856;2023-04-25T11:39:20;4.23;;;1.10;;
5042;SDS011;2540;50.928;6.856;2023-04-25T11:41:46;4.00;;;1.27;;
5042;SDS011;2540;50.928;6.856;2023-04-25T11:44:11;8.63;;;2.10;;
5042;SDS011;2540;50.928;6.856;2023-04-25T11:46:37;5.53;;;1.30;;
5042;SDS011;2540;50.928;6.856;2023-04-25T11:49:02;10.77;;;2.37;;
5042;SDS011;2540;50.928;6.856;2023-04-25T11:51:29;4.30;;;1.50;;
5042;SDS011;2540;50.928;6.856;2023-04-25T11:53:55;4.20;;;1.40;;
5042;SDS011;2540;50.928;6.856;2023-04-25T11:56:20;6.63;;;1.80;;
5042;SDS011;2540;50.928;6.856;2023-04-25T11:58:59;4.07;;;1.30;;
5042;SDS011;2540;50.928;6.856;2023-04-25T12:01:35;2.83;;;1.10;;
5042;SDS011;2540;50.928;6.856;2023-04-25T12:06:43;6.40;;;1.30;;
5042;SDS011;2540;50.928;6.856;2023-04-25T12:09:11;6.30;;;1.40;;
5042;SDS011;2540;50.928;6.856;2023-04-25T12:11:44;14.33;;;1.60;;
5042;SDS011;2540;50.928;6.856;2023-04-25T12:14:11;7.13;;;1.47;;
5042;SDS011;2540;50.928;6.856;2023-04-25T12:16:44;4.30;;;1.60;;
5042;SDS011;2540;50.928;6.856;2023-04-25T12:19:13;3.37;;;1.40;;
5042;SDS011;2540;50.928;6.856;2023-04-25T12:21:42;5.77;;;1.40;;
5042;SDS011;2540;50.928;6.856;2023-04-25T12:24:18;1.87;;;1.70;;
5042;SDS011;2540;50.928;6.856;2023-04-25T12:29:18;6.93;;;1.67;;
5042;SDS011;2540;50.928;6.856;2023-04-25T12:31:45;5.50;;;1.90;;
5042;SDS011;2540;50.928;6.856;2023-04-25T12:34:11;4.40;;;1.30;;
5042;SDS011;2540;50.928;6.856;2023-04-25T12:36:36;4.00;;;1.53;;
5042;SDS011;2540;50.928;6.856;2023-04-25T12:39:02;4.90;;;1.60;;
5042;SDS011;2540;50.928;6.856;2023-04-25T12:41:29;6.70;;;2.30;;
5042;SDS011;2540;50.928;6.856;2023-04-25T12:43:55;8.43;;;2.10;;
5042;SDS011;2540;50.928;6.856;2023-04-25T12:46:20;3.73;;;1.27;;
5042;SDS011;2540;50.928;6.856;2023-04-25T12:48:46;4.70;;;1.60;;
5042;SDS011;2540;50.928;6.856;2023-04-25T12:51:11;5.50;;;1.40;;
5042;SDS011;2540;50.928;6.856;2023-04-25T12:53:36;3.57;;;1.57;;
5042;SDS011;2540;50.928;6.856;2023-04-25T12:56:03;4.70;;;1.40;;
5042;SDS011;2540;50.928;6.856;2023-04-25T12:58:29;3.77;;;1.73;;
5042;SDS011;2540;50.928;6.856;2023-04-25T13:00:55;3.00;;;1.70;;
5042;SDS011;2540;50.928;6.856;2023-04-25T13:03:20;8.60;;;2.27;;
5042;SDS011;2540;50.928;6.856;2023-04-25T13:05:46;2.67;;;1.40;;
5042;SDS011;2540;50.928;6.856;2023-04-25T13:08:12;6.27;;;1.50;;
5042;SDS011;2540;50.928;6.856;2023-04-25T13:10:37;9.43;;;1.80;;
5042;SDS011;2540;50.928;6.856;2023-04-25T13:13:04;9.93;;;1.80;;
5042;SDS011;2540;50.928;6.856;2023-04-25T13:15:29;8.30;;;2.10;;
5042;SDS011;2540;50.928;6.856;2023-04-25T13:17:55;6.87;;;1.40;;
5042;SDS011;2540;50.928;6.856;2023-04-25T13:20:20;2.70;;;1.40;;
5042;SDS011;2540;50.928;6.856;2023-04-25T13:22:47;3.83;;;1.70;;
5042;SDS011;2540;50.928;6.856;2023-04-25T13:25:12;4.63;;;1.63;;
5042;SDS011;2540;50.928;6.856;2023-04-25T13:27:38;9.70;;;1.40;;
5042;SDS011;2540;50.928;6.856;2023-04-25T13:30:05;6.97;;;2.03;;
5042;SDS011;2540;50.928;6.856;2023-04-25T13:32:37;6.70;;;2.10;;
5042;SDS011;2540;50.928;6.856;2023-04-25T13:35:03;8.97;;;1.97;;
5042;SDS011;2540;50.928;6.856;2023-04-25T13:37:29;3.53;;;1.47;;
5042;SDS011;2540;50.928;6.856;2023-04-25T13:39:57;10.27;;;1.63;;
5042;SDS011;2540;50.928;6.856;2023-04-25T13:42:23;3.67;;;2.10;;
5042;SDS011;2540;50.928;6.856;2023-04-25T13:44:49;7.87;;;1.60;;
5042;SDS011;2540;50.928;6.856;2023-04-25T13:47:14;6.13;;;1.20;;
5042;SDS011;2540;50.928;6.856;2023-04-25T13:49:40;2.60;;;1.10;;
5042;SDS011;2540;50.928;6.856;2023-04-25T13:52:05;3.00;;;1.27;;
5042;SDS011;2540;50.928;6.856;2023-04-25T13:54:31;3.40;;;1.13;;
5042;SDS011;2540;50.928;6.856;2023-04-25T13:56:56;0.83;;;0.83;;
5042;SDS011;2540;50.928;6.856;2023-04-25T13:59:24;4.83;;;1.40;;
5042;SDS011;2540;50.928;6.856;2023-04-25T14:01:50;4.17;;;1.33;;
5042;SDS011;2540;50.928;6.856;2023-04-25T14:04:16;2.77;;;1.03;;
5042;SDS011;2540;50.928;6.856;2023-04-25T14:06:41;1.83;;;1.00;;
5042;SDS011;2540;50.928;6.856;2023-04-25T14:09:07;3.77;;;1.33;;
5042;SDS011;2540;50.928;6.856;2023-04-25T14:11:35;2.30;;;1.23;;
5042;SDS011;2540;50.928;6.856;2023-04-25T14:14:01;1.87;;;1.00;;
5042;SDS011;2540;50.928;6.856;2023-04-25T14:16:26;2.03;;;0.80;;
5042;SDS011;2540;50.928;6.856;2023-04-25T14:18:52;7.40;;;1.10;;
5042;SDS011;2540;50.928;6.856;2023-04-25T14:21:17;4.77;;;1.40;;
5042;SDS011;2540;50.928;6.856;2023-04-25T14:23:43;3.30;;;1.00;;
5042;SDS011;2540;50.928;6.856;2023-04-25T14:26:08;4.00;;;1.20;;
5042;SDS011;2540;50.928;6.856;2023-04-25T14:28:37;1.60;;;0.80;;
5042;SDS011;2540;50.928;6.856;2023-04-25T14:31:02;4.20;;;1.00;;
5042;SDS011;2540;50.928;6.856;2023-04-25T14:33:28;2.00;;;1.10;;
5042;SDS011;2540;50.928;6.856;2023-04-25T14:35:53;3.07;;;1.00;;
5042;SDS011;2540;50.928;6.856;2023-04-25T14:38:18;5.73;;;1.10;;
5042;SDS011;2540;50.928;6.856;2023-04-25T14:40:48;6.20;;;1.10;;
5042;SDS011;2540;50.928;6.856;2023-04-25T14:43:13;2.70;;;0.83;;
5042;SDS011;2540;50.928;6.856;2023-04-25T14:45:39;5.10;;;1.37;;
5042;SDS011;2540;50.928;6.856;2023-04-25T14:48:04;3.50;;;0.90;;
5042;SDS011;2540;50.928;6.856;2023-04-25T14:50:30;2.63;;;1.10;;
5042;SDS011;2540;50.928;6.856;2023-04-25T14:52:55;3.40;;;0.80;;
5042;SDS011;2540;50.928;6.856;2023-04-25T14:55:23;5.03;;;1.00;;
5042;SDS011;2540;50.928;6.856;2023-04-25T14:57:49;1.63;;;0.90;;
5042;SDS011;2540;50.928;6.856;2023-04-25T15:00:15;2.00;;;1.10;;
5042;SDS011;2540;50.928;6.856;2023-04-25T15:02:41;3.97;;;1.17;;
5042;SDS011;2540;50.928;6.856;2023-04-25T15:05:07;3.73;;;1.17;;
5042;SDS011;2540;50.928;6.856;2023-04-25T15:07:33;7.70;;;1.13;;
5042;SDS011;2540;50.928;6.856;2023-04-25T15:09:59;4.77;;;1.70;;
5042;SDS011;2540;50.928;6.856;2023-04-25T15:12:25;7.63;;;1.80;;
5042;SDS011;2540;50.928;6.856;2023-04-25T15:14:53;4.40;;;1.27;;